Sunday, October 22, 2017, 5:07 PM EDT
Back to Local

KCAK, Akron-canton Regional Airport

Location: Canton, OH, United States Lat: 40.917
Local Time: 5:07 PM EDT (21:07 GMT) Lon: -81.45
Time Zone: US/Eastern Elev: 1227 ft

Show me the last for .
Show Decoded

2017-10-22 16:51 METAR KCAK 222051Z 20010KT 10SM SCT210 BKN250 24/09 A3015 RMK AO2 SLP205
                 T02390089 56021 =
2017-10-22 15:51 METAR KCAK 221951Z 18011KT 10SM SCT250 25/10 A3016 RMK AO2 SLP208 T02500100 =
2017-10-22 14:51 METAR KCAK 221851Z 19010KT 10SM BKN250 24/10 A3019 RMK AO2 SLP218 T02440100 =
2017-10-22 13:51 METAR KCAK 221751Z 19009KT 10SM BKN250 23/11 A3022 RMK AO2 SLP227 T02330106
                 10239 20122 58019 =
2017-10-22 12:51 METAR KCAK 221651Z 20007KT 10SM BKN250 22/11 A3025 RMK AO2 SLP238 T02220106 =
2017-10-22 11:51 METAR KCAK 221551Z 19007KT 10SM BKN250 21/11 A3026 RMK AO2 SLP245 T02110106 =
2017-10-22 10:51 METAR KCAK 221451Z 20009KT 10SM BKN250 20/11 A3027 RMK AO2 SLP250 T02000111
                 51006 =
2017-10-22 09:51 METAR KCAK 221351Z 19007KT 10SM BKN250 17/11 A3027 RMK AO2 SLP248 T01720111 =
2017-10-22 08:51 METAR KCAK 221251Z 16005KT 10SM SCT250 13/09 A3026 RMK AO2 SLP246 T01330094 =
2017-10-22 07:51 METAR KCAK 221151Z 14007KT 10SM SCT250 12/09 A3026 RMK AO2 SLP245 T01220089
                 10139 20111 51001 =
2017-10-22 06:51 METAR KCAK 221051Z 13008KT 10SM SCT250 13/09 A3025 RMK AO2 SLP243 T01330094 =
2017-10-22 05:51 METAR KCAK 220951Z 12004KT 10SM FEW250 12/09 A3026 RMK AO2 SLP246 T01170089 =
2017-10-22 04:51 METAR KCAK 220851Z 12003KT 10SM SCT250 13/09 A3025 RMK AO2 SLP241 T01280094
                 52007 =
2017-10-22 03:51 METAR KCAK 220751Z 15003KT 10SM SCT250 13/09 A3024 RMK SLP237 T01330094 =
2017-10-22 02:51 METAR KCAK 220651Z 15004KT 10SM FEW150 SCT250 13/09 A3024 RMK AO2 SLP237
                 T01330094 =
2017-10-22 01:51 METAR KCAK 220551Z 17006KT 10SM FEW150 SCT200 14/10 A3023 RMK AO2 SLP234
                 T01390100 10172 20133 56007 =
2017-10-22 00:51 METAR KCAK 220451Z 16005KT 10SM FEW150 SCT200 14/09 A3024 RMK AO2 SLP236
                 T01390094 402280094 =
2017-10-21 23:51 METAR KCAK 220351Z 18006KT 10SM SCT250 14/09 A3024 RMK AO2 SLP238 T01390094 =
2017-10-21 22:51 METAR KCAK 220251Z 19006KT 10SM OVC250 13/09 A3025 RMK AO2 SLP243 T01330089
                 58002 =
2017-10-21 21:51 METAR KCAK 220151Z 16006KT 10SM OVC240 16/09 A3026 RMK AO2 SLP244 T01560094 =
2017-10-21 20:51 METAR KCAK 220051Z 17005KT 10SM OVC240 17/09 A3026 RMK AO2 SLP247 T01670094 =
2017-10-21 19:51 METAR KCAK 212351Z 18006KT 10SM OVC220 17/09 A3026 RMK AO2 SLP247 T01670094
                 10228 20167 53005 =
2017-10-21 18:51 METAR KCAK 212251Z 14006KT 10SM BKN240 19/09 A3024 RMK AO2 SLP241 T01890089 =
2017-10-21 17:51 METAR KCAK 212151Z COR 18006KT 10SM BKN250 18/09 A3025 RMK AO2 SLP243 T01830089
                 =

Support USWX by starting your Amazon purchase here.